x

Sentry Shoal (46131) Wave Buoy

12:00 - Tue 26th May 2015 All times are PDT. -7 hours from GMT.

  • Sig Wave height 1.0ft
  • Peak Period 2s
  • Wind
    16mph, 18mph gusts
  • Sea Temp 62°f
  • Luft Temp 58°f
  • Sea Pressure 1016.1mb
  • Sentry Shoal
  • Sentry Shoal

More Historic Weather Station data

Upgrade to MSW Pro to gain access to the past 30 days of data for over 8000 Wavebouys and Weather Stations around the globe.

Join Pro

Comparision Forecast

View Surf forecast
   
Di 05/26 12:00 1ft 2s 16 18 mph 1016.1mb 62f 58f
Mo 05/25 11:00 1ft 3s 4 13 mph 1016mb 62f 61f
10:00 1ft 3s 9 11 mph 1015.5mb 63f 61f
9:00 1ft 2s 11
mph
1014.9mb 64f 62f
8:00 1ft 2s 11 13 mph 1014.5mb 64f 62f
7:00 0.3ft 2s 13
mph
1014.3mb 64f 62f
6:00 0.3ft 5s 9 11 mph 1014.4mb 65f 63f
5:00 0.3ft 5s 7 9 mph 1014.7mb 65f 63f
4:00 0.3ft 2s 7
mph
1014.9mb 66f 62f
3:00 0.3ft 3s 4
mph
1014.9mb 66f 64f
2:00 0.3ft 3s  -  2 mph 1015.2mb 65f 63f
1:00 0.7ft 3s 4 7 mph 1015.4mb 64f 60f
12:00 0.7ft 3s 9
mph
1015.5mb 63f 59f
11:00 1ft 3s 11 13 mph 1015.4mb 62f 58f
10:00 1ft 3s 11 13 mph 1015.4mb 61f 57f
9:00 1ft 3s 13 16 mph 1015.5mb 61f 56f
8:00 0.7ft 2s 11 13 mph 1015.4mb 61f 55f
7:00 0.7ft 2s 9 11 mph 1015.4mb 62f 55f
6:00 0.7ft 2s 9 13 mph 1015.4mb 62f 54f
5:00 1ft 3s 9 13 mph 1015.4mb 61f 55f
4:00 1ft 3s 11 13 mph 1015.5mb 61f 55f
3:00 1.3ft 3s 11 13 mph 1015.6mb 61f 56f
2:00 1.3ft 3s 13 16 mph 1015.4mb 61f 56f
1:00 1.3ft 3s 11 13 mph 1015.3mb 61f 57f
12:00 2ft 4s 16 18 mph 1015.2mb 62f 58f
So 05/24 11:00 2ft 4s 18 20 mph 1015.2mb 62f 59f
10:00 1.3ft 3s 20 25 mph 1014.6mb 62f 60f
9:00 0.3ft 2s 4 9 mph 1014.6mb 63f 62f
8:00 0.3ft 2s 4 7 mph 1014.4mb 63f 64f
7:00 0.3ft 2s 7 9 mph 1014.5mb 64f 62f
6:00 0.3ft 2s 9
mph
1014.8mb 64f 62f
5:00 0.3ft 2s 9 11 mph 1015.4mb 64f 62f
4:00 0.3ft 2s 9 11 mph 1016mb 64f 62f
3:00  -  4s 9
mph
1017mb 64f 61f
2:00 0.3ft 2s 4 7 mph 1017.9mb 64f 61f
1:00 0.3ft 2s 4
mph
1018.5mb 64f 60f
12:00 0.3ft 3s  -  mph 1019.1mb 62f 60f
11:00 0.3ft 2s 4 7 mph 1019.6mb 61f 57f
10:00 1ft 2s 7 9 mph 1020mb 60f 56f
9:00 1ft 2s 13 16 mph 1020.3mb 60f 55f
8:00 1ft 3s 11 13 mph 1020.5mb 60f 55f
7:00 1.3ft 3s 13 18 mph 1020.5mb 60f 54f
6:00 1.6ft 3s 13 18 mph 1020.6mb 60f 55f
5:00 1.3ft 3s 16 18 mph 1020.5mb 60f 55f
4:00 1.3ft 3s 16 18 mph 1020.5mb 60f 55f
3:00 1ft 4s 16 18 mph 1020.5mb 60f 57f
2:00 1ft 3s 2
mph
1020.6mb 60f 59f
1:00 1ft 3s 4 7 mph 1020.7mb 60f 60f
12:00 1ft 3s 9 11 mph 1020.2mb 60f 60f
Sa 05/23 11:00 1ft 2s 4 7 mph 1020.1mb 60f 60f
10:00 1ft 7s 9 11 mph 1020.2mb 60f 60f
9:00 0.7ft 3s 9 11 mph 1019.8mb 61f 61f
8:00 0.7ft 3s 7 9 mph 1019.5mb 62f 61f
7:00 0.3ft 3s 4
mph
1019.4mb 62f 61f
6:00 0.3ft 3s 4 7 mph 1019.7mb 62f 62f
5:00 0.3ft 4s 4 7 mph 1020.3mb 62f 61f
4:00 0.3ft 4s 7
mph
1020.9mb 62f 61f
3:00 0.3ft 4s 7
mph
1021.4mb 62f 60f
2:00 0.3ft 3s 4 7 mph 1021.6mb 61f 60f
1:00 0.3ft 3s 2 4 mph 1021.7mb 62f 59f
12:00 0.3ft 2s 2 4 mph 1021.5mb 62f 58f
11:00 0.3ft 2s 4 7 mph 1021.1mb 61f 57f
10:00 0.7ft 2s 7
mph
1020.9mb 60f 56f
9:00 1ft 2s 9 11 mph 1020.7mb 60f 55f
8:00 1ft 2s 11 13 mph 1020.4mb 60f 55f
7:00 1ft 2s 11
mph
1019.9mb 60f 55f
6:00 1ft 2s 11 13 mph 1019.3mb 60f 55f
5:00 1ft 2s 13 16 mph 1019.2mb 60f 55f
4:00 1ft 2s 11 13 mph 1018.9mb 60f 56f
3:00 1ft 2s 13 16 mph 1018.6mb 60f 57f
2:00 0.7ft 4s 11 13 mph 1017.8mb 60f 58f
1:00 0.7ft 2s 9
mph
1017.2mb 60f 59f
12:00 0.3ft 2s 9 11 mph 1016.7mb 61f 60f
Fr 05/22 11:00 0.3ft 3s 2 4 mph 1016.2mb 61f 61f
10:00 0.7ft 2s 2 4 mph 1015.4mb 61f 61f
9:00 0.3ft 2s 4 11 mph 1014.9mb 61f 62f
8:00 0.3ft 2s 9 11 mph 1014.2mb 61f 63f
7:00 0.3ft 2s 7 9 mph 1013.7mb 62f 63f
6:00 0.3ft 2s 11
mph
1013.1mb 61f 64f
5:00  -  3s 4
mph
1013.2mb 62f 65f
4:00  -  3s 2 4 mph 1013.3mb 62f 63f
3:00 0.3ft 2s 4
mph
1013.5mb 61f 62f
2:00 0.3ft 2s 4 7 mph 1013.7mb 60f 62f
1:00 0.3ft 2s 7
mph
1014.1mb 59f 60f
12:00 0.3ft 2s 9
mph
1014.2mb 59f 59f
11:00 0.7ft 2s 9 11 mph 1014mb 58f 58f
10:00 1ft 3s 11 13 mph 1013.9mb 58f 56f
9:00 1.3ft 2s 13 16 mph 1013.9mb 57f 56f